Time;durP1;ratioP1;P1;durP2;ratioP2;P2;SDS_P1;SDS_P2;PMS_P1;PMS_P2;Temp;Humidity;BMP_temperature;BMP_pressure;BME280_temperature;BME280_humidity;BME280_pressure;Samples;Min_cycle;Max_cycle;Signal;HPM_P1;HPM_P2
2022/02/01 00:00:41;;;;;;;19.30;5.27;;;;;;;-1.94;100.00;100276.53;5026672;28;20203;-76
2022/02/01 00:03:08;;;;;;;27.73;5.63;;;;;;;-1.95;100.00;100283.34;5030478;28;20661;-76
2022/02/01 00:05:40;;;;;;;26.13;5.17;;;;;;;-1.94;100.00;100282.50;5028820;28;20192;-76
2022/02/01 00:08:14;;;;;;;33.10;6.10;;;;;;;-1.93;100.00;100293.59;5026204;28;20295;-76
2022/02/01 00:10:50;;;;;;;23.07;5.83;;;;;;;-1.89;100.00;100287.69;5027273;28;20300;-76
2022/02/01 00:13:28;;;;;;;22.93;5.23;;;;;;;-1.86;100.00;100297.13;5028200;28;20199;-76
2022/02/01 00:16:27;;;;;;;24.73;6.20;;;;;;;-1.82;100.00;100292.09;5025681;28;20283;-76
2022/02/01 00:19:21;;;;;;;21.67;5.20;;;;;;;-1.78;100.00;100314.31;5027800;28;20220;-76
2022/02/01 00:35:38;;;;;;;19.07;5.37;;;;;;;-1.59;100.00;100314.66;5026283;28;20221;-77
2022/02/01 00:38:14;;;;;;;23.10;5.37;;;;;;;-1.54;100.00;100310.50;5036923;28;20314;-76
2022/02/01 00:40:41;;;;;;;22.97;5.57;;;;;;;-1.48;100.00;100314.84;5030019;28;20695;-76
2022/02/01 00:43:07;;;;;;;19.73;5.13;;;;;;;-1.47;100.00;100329.38;5023277;28;20295;-76
2022/02/01 00:45:35;;;;;;;30.30;5.17;;;;;;;-1.47;100.00;100332.78;5029624;28;20286;-76
2022/02/01 00:48:03;;;;;;;16.43;5.27;;;;;;;-1.45;100.00;100340.50;5028760;28;20216;-76
2022/02/01 00:50:29;;;;;;;25.93;5.63;;;;;;;-1.42;100.00;100350.78;5034682;28;20661;-76
2022/02/01 00:52:56;;;;;;;23.57;6.00;;;;;;;-1.43;100.00;100349.91;5031619;28;20560;-76
2022/02/01 00:55:22;;;;;;;19.10;5.40;;;;;;;-1.41;100.00;100348.22;5033159;28;20192;-76
2022/02/01 00:57:49;;;;;;;23.47;5.57;;;;;;;-1.41;100.00;100349.94;5028317;28;20284;-76
2022/02/01 01:00:15;;;;;;;19.90;4.97;;;;;;;-1.39;100.00;100350.81;5028275;28;20219;-76
2022/02/01 01:02:43;;;;;;;24.07;6.70;;;;;;;-1.38;100.00;100348.28;5025801;28;20627;-76
2022/02/01 01:05:13;;;;;;;28.03;5.83;;;;;;;-1.38;100.00;100344.88;5028575;28;20604;-77
2022/02/01 01:07:39;;;;;;;29.07;5.93;;;;;;;-1.38;100.00;100340.63;5024508;28;20218;-77
2022/02/01 01:10:09;;;;;;;27.83;5.90;;;;;;;-1.39;100.00;100336.38;5026348;28;20214;-76
2022/02/01 01:12:44;;;;;;;24.07;5.80;;;;;;;-1.40;100.00;100332.06;5026503;28;20203;-76
2022/02/01 01:15:19;;;;;;;21.97;5.33;;;;;;;-1.41;100.00;100334.59;5026456;28;20294;-76
2022/02/01 01:45:23;;;;;;;21.73;6.20;;;;;;;-1.25;100.00;100341.72;5022727;28;20204;-76
2022/02/01 01:53:20;;;;;;;28.90;5.93;;;;;;;-1.18;100.00;100347.78;5020216;28;20208;-76
2022/02/01 01:55:49;;;;;;;20.70;5.43;;;;;;;-1.17;100.00;100345.25;5023584;28;20558;-76
2022/02/01 01:58:15;;;;;;;24.23;6.20;;;;;;;-1.13;100.00;100348.72;5020514;28;20218;-77
2022/02/01 02:01:00;;;;;;;26.47;6.10;;;;;;;-1.10;100.00;100330.03;5026701;28;20624;-76
2022/02/01 02:03:27;;;;;;;36.97;6.40;;;;;;;-1.08;100.00;100333.47;5027638;28;20270;-77
2022/02/01 02:05:55;;;;;;;24.50;5.37;;;;;;;-1.05;100.00;100339.50;5025144;28;22447;-77
2022/02/01 02:08:22;;;;;;;34.67;5.93;;;;;;;-1.07;100.00;100341.16;5032277;28;20216;-77
2022/02/01 02:10:56;;;;;;;30.53;6.13;;;;;;;-1.04;100.00;100340.34;5024407;28;20199;-76
2022/02/01 02:16:07;;;;;;;26.47;5.60;;;;;;;-1.03;100.00;100335.25;5024346;28;20261;-76
2022/02/01 02:18:35;;;;;;;22.40;5.00;;;;;;;-1.02;100.00;100342.09;5027502;28;20327;-76
2022/02/01 02:21:05;;;;;;;22.30;6.00;;;;;;;-1.01;100.00;100341.25;5031874;28;20458;-76
2022/02/01 02:23:32;;;;;;;22.00;5.30;;;;;;;-1.01;100.00;100342.97;5030952;28;20640;-76
2022/02/01 02:26:01;;;;;;;27.10;5.57;;;;;;;-1.00;100.00;100339.59;5039559;28;20204;-76
2022/02/01 02:28:27;;;;;;;22.83;5.60;;;;;;;-1.02;100.00;100331.88;5034082;28;20215;-76
2022/02/01 02:30:54;;;;;;;25.77;5.57;;;;;;;-1.06;100.00;100335.19;5029030;28;20200;-76
2022/02/01 02:33:21;;;;;;;32.43;6.03;;;;;;;-1.09;100.00;100339.41;5028289;28;20204;-76
2022/02/01 02:35:55;;;;;;;25.53;5.73;;;;;;;-1.10;100.00;100340.25;5028985;28;20200;-76
2022/02/01 02:38:32;;;;;;;27.27;6.17;;;;;;;-1.16;100.00;100347.00;5029957;28;20228;-76
2022/02/01 02:41:10;;;;;;;29.43;5.53;;;;;;;-1.18;100.00;100342.66;5030213;28;20679;-76
2022/02/01 02:46:25;;;;;;;20.30;5.97;;;;;;;-1.24;100.00;100368.16;5023509;28;20290;-77
2022/02/01 02:48:51;;;;;;;16.60;5.47;;;;;;;-1.25;100.00;100363.88;5027109;28;20216;-76
2022/02/01 02:51:18;;;;;;;30.37;6.90;;;;;;;-1.23;100.00;100367.31;5025889;28;20559;-76
2022/02/01 02:53:46;;;;;;;23.63;5.83;;;;;;;-1.22;100.00;100367.34;5027635;28;20212;-76
2022/02/01 02:56:13;;;;;;;23.63;6.13;;;;;;;-1.18;100.00;100363.13;5029253;28;20207;-76
2022/02/01 02:58:39;;;;;;;35.10;6.27;;;;;;;-1.12;100.00;100363.25;5026741;28;20699;-76
2022/02/01 03:01:06;;;;;;;20.63;6.47;;;;;;;-1.09;100.00;100373.56;5026439;28;20219;-76
2022/02/01 03:03:33;;;;;;;20.40;6.77;;;;;;;-1.05;100.00;100370.19;5029748;28;20211;-76
2022/02/01 03:06:05;;;;;;;26.60;6.60;;;;;;;-1.04;100.00;100374.50;5028074;28;20286;-76
2022/02/01 03:08:31;;;;;;;28.67;7.33;;;;;;;-1.00;100.00;100376.25;5026401;28;20222;-76
2022/02/01 03:10:59;;;;;;;24.50;6.77;;;;;;;-0.98;100.00;100374.59;5029201;28;20603;-75
2022/02/01 03:13:29;;;;;;;25.37;6.93;;;;;;;-0.98;100.00;100384.81;5026440;28;20225;-76
2022/02/01 03:16:02;;;;;;;22.63;6.43;;;;;;;-0.94;100.00;100378.06;5029046;28;20214;-76
2022/02/01 03:21:13;;;;;;;33.57;7.60;;;;;;;-0.88;100.00;100369.59;5025278;28;20212;-73
2022/02/01 03:23:39;;;;;;;25.20;6.03;;;;;;;-0.84;100.00;100376.53;5024832;28;20204;-74
2022/02/01 03:26:07;;;;;;;26.93;7.13;;;;;;;-0.83;100.00;100373.09;5027302;28;20200;-74
2022/02/01 03:28:34;;;;;;;20.23;6.93;;;;;;;-0.81;100.00;100377.44;5024319;28;20228;-75
2022/02/01 03:31:00;;;;;;;19.50;6.93;;;;;;;-0.80;100.00;100370.59;5024166;28;20204;-75
2022/02/01 03:33:26;;;;;;;26.50;6.60;;;;;;;-0.75;100.00;100368.13;5025401;28;20211;-74
2022/02/01 03:35:53;;;;;;;29.93;6.93;;;;;;;-0.74;100.00;100382.63;5029443;28;20200;-74
2022/02/01 03:38:19;;;;;;;20.17;6.83;;;;;;;-0.73;100.00;100374.97;5027063;28;20231;-74
2022/02/01 03:40:45;;;;;;;34.83;7.50;;;;;;;-0.70;100.00;100366.47;5033704;28;20202;-74
2022/02/01 03:43:13;;;;;;;29.20;6.60;;;;;;;-0.69;100.00;100366.50;5030330;28;20209;-74
2022/02/01 03:45:40;;;;;;;28.50;6.50;;;;;;;-0.68;100.00;100364.81;5030372;28;20200;-74
2022/02/01 03:48:06;;;;;;;19.10;6.13;;;;;;;-0.68;100.00;100368.25;5030366;28;20212;-74
2022/02/01 03:50:33;;;;;;;28.50;6.73;;;;;;;-0.65;100.00;100381.09;5034941;28;20229;-74
2022/02/01 03:52:59;;;;;;;28.80;7.87;;;;;;;-0.63;100.00;100376.84;5030118;28;20675;-73
2022/02/01 03:55:25;;;;;;;27.37;7.17;;;;;;;-0.62;100.00;100383.69;5028090;28;20200;-74
2022/02/01 03:57:52;;;;;;;25.33;6.77;;;;;;;-0.60;100.00;100381.16;5025040;28;20235;-74
2022/02/01 04:00:20;;;;;;;23.03;6.93;;;;;;;-0.59;100.00;100386.28;5029700;28;20203;-74
2022/02/01 04:02:46;;;;;;;23.97;7.67;;;;;;;-0.58;100.00;100380.34;5026688;28;20195;-74
2022/02/01 04:05:12;;;;;;;24.27;6.80;;;;;;;-0.55;100.00;100386.34;5026855;28;20201;-74
2022/02/01 04:07:43;;;;;;;27.63;7.83;;;;;;;-0.54;100.00;100390.66;5029628;28;20210;-73
2022/02/01 04:10:10;;;;;;;29.70;7.57;;;;;;;-0.54;100.00;100382.97;5027501;28;20214;-73
2022/02/01 04:12:38;;;;;;;25.97;7.60;;;;;;;-0.54;100.00;100382.97;5029083;28;20211;-74
2022/02/01 04:15:05;;;;;;;22.10;6.80;;;;;;;-0.52;100.00;100384.69;5026438;28;20250;-74
2022/02/01 04:17:33;;;;;;;27.67;6.57;;;;;;;-0.53;100.00;100385.53;5024049;28;20280;-74
2022/02/01 04:19:59;;;;;;;21.20;6.67;;;;;;;-0.51;100.00;100378.75;5028318;28;20195;-74
2022/02/01 04:22:26;;;;;;;21.00;7.10;;;;;;;-0.51;100.00;100368.50;5031100;28;20717;-74
2022/02/01 04:24:52;;;;;;;23.73;7.47;;;;;;;-0.51;100.00;100365.94;5028194;28;20214;-73
2022/02/01 04:27:30;;;;;;;27.87;7.47;;;;;;;-0.52;100.00;100369.34;5031235;28;20205;-74
2022/02/01 04:30:05;;;;;;;19.87;7.23;;;;;;;-0.49;100.00;100374.50;5025659;28;20227;-74
2022/02/01 04:32:35;;;;;;;21.47;7.50;;;;;;;-0.48;100.00;100381.34;5023917;28;20226;-74
2022/02/01 04:35:02;;;;;;;20.60;7.50;;;;;;;-0.48;100.00;100377.91;5024496;28;20704;-74
2022/02/01 04:37:28;;;;;;;26.07;7.07;;;;;;;-0.44;100.00;100384.81;5027460;28;20200;-75
2022/02/01 04:39:55;;;;;;;19.57;7.20;;;;;;;-0.46;100.00;100377.13;5024503;28;20211;-74
2022/02/01 04:42:23;;;;;;;22.57;7.27;;;;;;;-0.45;100.00;100363.47;5027175;28;20203;-74
2022/02/01 04:44:49;;;;;;;21.90;7.17;;;;;;;-0.43;100.00;100372.03;5027521;28;20601;-74
2022/02/01 04:47:15;;;;;;;13.73;6.20;;;;;;;-0.44;100.00;100366.88;5030209;28;20196;-74
2022/02/01 04:49:43;;;;;;;16.70;6.27;;;;;;;-0.44;100.00;100372.88;5027566;28;20216;-74
2022/02/01 04:52:10;;;;;;;27.30;6.97;;;;;;;-0.44;100.00;100366.88;5027309;28;20192;-73
2022/02/01 04:54:36;;;;;;;14.93;7.20;;;;;;;-0.41;100.00;100356.69;5022715;28;20201;-74
2022/02/01 04:57:03;;;;;;;21.00;6.90;;;;;;;-0.41;100.00;100346.44;5028089;28;20391;-74
2022/02/01 04:59:29;;;;;;;22.47;6.97;;;;;;;-0.41;100.00;100352.41;5027334;28;20220;-71
2022/02/01 05:01:56;;;;;;;17.20;7.40;;;;;;;-0.40;100.00;100353.28;5027654;28;20199;-73
2022/02/01 05:04:22;;;;;;;22.10;7.10;;;;;;;-0.43;100.00;100354.09;5026881;28;20196;-73
2022/02/01 05:06:53;;;;;;;22.67;7.30;;;;;;;-0.45;100.00;100349.81;5029120;28;20208;-73
2022/02/01 05:09:19;;;;;;;17.83;7.73;;;;;;;-0.44;100.00;100346.38;5023779;28;20326;-73
2022/02/01 05:11:46;;;;;;;23.60;8.33;;;;;;;-0.43;100.00;100350.69;5026927;28;20230;-73
2022/02/01 05:14:14;;;;;;;21.10;7.43;;;;;;;-0.41;100.00;100341.31;5024956;28;20227;-73
2022/02/01 05:16:57;;;;;;;21.47;7.50;;;;;;;-0.40;100.00;100338.78;5021018;28;20193;-73
2022/02/01 05:19:35;;;;;;;20.53;7.77;;;;;;;-0.41;100.00;100331.91;5023434;28;20307;-73
2022/02/01 05:22:06;;;;;;;19.43;7.97;;;;;;;-0.40;100.00;100333.66;5023992;28;20191;-73
2022/02/01 05:24:35;;;;;;;20.97;8.07;;;;;;;-0.40;100.00;100341.34;5024804;28;20233;-73
2022/02/01 05:27:04;;;;;;;18.60;8.10;;;;;;;-0.37;100.00;100345.63;5025690;28;20200;-73
2022/02/01 05:29:31;;;;;;;16.53;7.87;;;;;;;-0.38;100.00;100349.91;5024006;28;20689;-73
2022/02/01 05:31:59;;;;;;;19.87;7.67;;;;;;;-0.39;100.00;100353.31;5026138;28;20203;-73
2022/02/01 05:34:25;;;;;;;26.07;8.17;;;;;;;-0.39;100.00;100345.63;5025237;28;20238;-74
2022/02/01 05:36:52;;;;;;;18.93;7.97;;;;;;;-0.38;100.00;100349.03;5025164;28;20199;-73
2022/02/01 05:39:23;;;;;;;20.47;8.10;;;;;;;-0.39;100.00;100352.44;5030067;28;20226;-73
2022/02/01 05:41:51;;;;;;;20.53;8.70;;;;;;;-0.40;100.00;100351.56;5026450;28;20196;-73
2022/02/01 05:44:18;;;;;;;17.57;8.43;;;;;;;-0.39;100.00;100362.69;5025003;28;20208;-73
2022/02/01 05:46:44;;;;;;;20.63;8.70;;;;;;;-0.39;100.00;100357.56;5023605;28;20202;-73
2022/02/01 05:49:11;;;;;;;23.37;8.90;;;;;;;-0.36;100.00;100351.63;5028105;28;20219;-73
2022/02/01 05:51:38;;;;;;;13.83;7.63;;;;;;;-0.37;100.00;100350.75;5021209;28;20208;-73
2022/02/01 05:54:05;;;;;;;17.63;8.27;;;;;;;-0.36;100.00;100367.00;5026795;28;20204;-73
2022/02/01 05:56:33;;;;;;;19.30;7.77;;;;;;;-0.35;100.00;100363.59;5027685;28;20574;-74
2022/02/01 05:58:59;;;;;;;23.50;8.57;;;;;;;-0.35;100.00;100361.03;5030454;28;20678;-74
2022/02/01 06:01:26;;;;;;;17.97;8.27;;;;;;;-0.32;100.00;100373.88;5029806;28;20552;-74
2022/02/01 06:03:53;;;;;;;19.17;8.07;;;;;;;-0.31;100.00;100373.06;5031394;28;20578;-74
2022/02/01 06:06:19;;;;;;;16.60;7.67;;;;;;;-0.33;100.00;100375.59;5027625;28;20210;-74
2022/02/01 06:08:45;;;;;;;17.70;8.57;;;;;;;-0.32;100.00;100379.00;5028310;28;20222;-74
2022/02/01 06:11:12;;;;;;;23.30;8.87;;;;;;;-0.32;100.00;100376.44;5035986;28;20215;-74
2022/02/01 06:13:40;;;;;;;18.80;8.37;;;;;;;-0.33;100.00;100369.63;5027834;28;20212;-74
2022/02/01 06:16:06;;;;;;;17.53;7.97;;;;;;;-0.33;100.00;100380.72;5033285;28;20239;-75
2022/02/01 06:18:33;;;;;;;17.07;7.77;;;;;;;-0.33;100.00;100380.72;5029658;28;20216;-74
2022/02/01 06:21:00;;;;;;;21.83;7.73;;;;;;;-0.32;100.00;100379.00;5031610;28;20192;-73
2022/02/01 06:23:28;;;;;;;16.80;8.40;;;;;;;-0.31;100.00;100383.31;5031927;28;20261;-73
2022/02/01 06:25:56;;;;;;;18.50;8.80;;;;;;;-0.31;100.00;100384.16;5028636;28;20450;-73
2022/02/01 06:28:24;;;;;;;19.13;8.47;;;;;;;-0.32;100.00;100376.44;5034101;28;20222;-74
2022/02/01 06:30:52;;;;;;;24.37;9.00;;;;;;;-0.34;100.00;100375.56;5031156;28;20216;-73
2022/02/01 06:33:21;;;;;;;22.40;8.80;;;;;;;-0.35;100.00;100376.41;5034028;28;20195;-73
2022/02/01 06:35:48;;;;;;;16.77;8.87;;;;;;;-0.35;100.00;100386.63;5033396;28;20192;-73
2022/02/01 06:38:15;;;;;;;20.17;9.10;;;;;;;-0.35;100.00;100394.31;5031383;28;20224;-73
2022/02/01 06:40:42;;;;;;;21.97;9.50;;;;;;;-0.36;100.00;100390.91;5029016;28;20205;-73
2022/02/01 06:43:09;;;;;;;23.90;9.63;;;;;;;-0.34;100.00;100388.38;5028057;28;20219;-73
2022/02/01 06:45:35;;;;;;;19.83;9.63;;;;;;;-0.33;100.00;100390.13;5028384;28;20724;-73
2022/02/01 06:48:03;;;;;;;19.13;9.53;;;;;;;-0.33;100.00;100385.00;5024106;28;20221;-73
2022/02/01 06:50:30;;;;;;;24.03;10.27;;;;;;;-0.33;100.00;100385.00;5034132;28;20234;-73
2022/02/01 06:52:57;;;;;;;21.80;9.40;;;;;;;-0.33;100.00;100388.41;5035982;28;20671;-73
2022/02/01 06:55:34;;;;;;;25.33;10.47;;;;;;;-0.35;100.00;100390.09;5029744;28;20229;-73
2022/02/01 06:58:01;;;;;;;26.23;10.83;;;;;;;-0.35;100.00;100392.66;5025624;28;20227;-74
2022/02/01 07:00:28;;;;;;;20.63;9.87;;;;;;;-0.40;100.00;100386.59;5024863;28;20200;-73
2022/02/01 07:02:54;;;;;;;23.70;10.57;;;;;;;-0.40;100.00;100395.13;5029443;28;20208;-73
2022/02/01 07:05:22;;;;;;;21.67;10.60;;;;;;;-0.46;100.00;100397.63;5028302;28;20196;-73
2022/02/01 07:07:50;;;;;;;22.07;10.77;;;;;;;-0.49;100.00;100389.88;5025363;28;20220;-72
2022/02/01 07:10:16;;;;;;;21.43;9.93;;;;;;;-0.52;100.00;100389.81;5028639;28;20316;-73
2022/02/01 07:12:43;;;;;;;21.53;9.90;;;;;;;-0.58;100.00;100385.47;5029673;28;20200;-73
2022/02/01 07:15:09;;;;;;;22.57;10.83;;;;;;;-0.62;100.00;100393.06;5033132;28;20279;-73
2022/02/01 07:17:44;;;;;;;18.90;9.23;;;;;;;-0.65;100.00;100396.47;5031027;28;20212;-73
2022/02/01 07:20:11;;;;;;;18.73;9.43;;;;;;;-0.69;100.00;100396.38;5025667;28;20200;-73
2022/02/01 07:22:41;;;;;;;20.73;9.70;;;;;;;-0.72;100.00;100384.41;5027399;28;20208;-73
2022/02/01 07:25:14;;;;;;;20.47;10.00;;;;;;;-0.73;100.00;100395.47;5029072;28;20200;-73
2022/02/01 07:27:42;;;;;;;20.40;9.70;;;;;;;-0.73;100.00;100389.50;5025990;28;20220;-73
2022/02/01 07:30:12;;;;;;;21.20;9.57;;;;;;;-0.71;100.00;100392.94;5028588;28;20589;-73
2022/02/01 07:32:38;;;;;;;18.20;9.27;;;;;;;-0.73;100.00;100384.38;5028825;28;20234;-73
2022/02/01 07:35:07;;;;;;;20.37;9.10;;;;;;;-0.74;100.00;100387.75;5027254;28;20240;-73
2022/02/01 07:37:33;;;;;;;15.07;8.70;;;;;;;-0.72;100.00;100376.72;5028870;28;20205;-73
2022/02/01 07:40:02;;;;;;;15.60;8.60;;;;;;;-0.70;100.00;100382.72;5028125;28;20560;-73
2022/02/01 07:42:28;;;;;;;16.50;8.70;;;;;;;-0.68;100.00;100364.81;5029307;28;20211;-72
2022/02/01 07:44:58;;;;;;;15.30;8.70;;;;;;;-0.66;100.00;100365.72;5028387;28;20222;-74
2022/02/01 07:47:25;;;;;;;14.67;9.23;;;;;;;-0.64;100.00;100367.44;5028275;28;20250;-73
2022/02/01 07:49:51;;;;;;;14.00;8.37;;;;;;;-0.64;100.00;100362.31;5026106;28;20222;-73
2022/02/01 07:52:18;;;;;;;18.00;8.47;;;;;;;-0.61;100.00;100372.63;5024730;28;20310;-73
2022/02/01 07:54:44;;;;;;;19.87;9.00;;;;;;;-0.62;100.00;100365.75;5025673;28;20200;-73
2022/02/01 07:57:12;;;;;;;17.37;8.40;;;;;;;-0.60;100.00;100373.47;5023925;28;20629;-74
2022/02/01 07:59:40;;;;;;;15.63;8.27;;;;;;;-0.60;100.00;100363.22;5030375;28;20222;-73
2022/02/01 08:02:16;;;;;;;16.97;8.50;;;;;;;-0.55;100.00;100368.44;5032593;28;20662;-72
2022/02/01 08:04:43;;;;;;;21.60;8.93;;;;;;;-0.53;100.00;100369.31;5027353;28;20291;-73
2022/02/01 08:07:11;;;;;;;16.43;9.10;;;;;;;-0.49;100.00;100379.63;5026958;28;20227;-73
2022/02/01 08:09:41;;;;;;;15.03;8.47;;;;;;;-0.44;100.00;100372.88;5027713;28;20216;-73
2022/02/01 08:12:17;;;;;;;20.97;10.00;;;;;;;-0.36;100.00;100378.09;5026290;28;20578;-74
2022/02/01 08:17:32;;;;;;;19.77;9.17;;;;;;;-0.26;100.00;100371.41;4995084;28;20223;-73
2022/02/01 08:20:02;;;;;;;18.43;9.53;;;;;;;-0.23;100.00;100374.00;5026817;28;20195;-73
2022/02/01 08:22:36;;;;;;;19.70;9.00;;;;;;;-0.18;100.00;100372.38;5026505;28;20281;-73
2022/02/01 08:25:04;;;;;;;18.73;9.40;;;;;;;-0.14;100.00;100373.28;5026185;28;20648;-73
2022/02/01 08:27:31;;;;;;;20.37;9.07;;;;;;;-0.10;100.00;100380.19;5027902;28;20209;-73
2022/02/01 08:30:01;;;;;;;17.97;10.90;;;;;;;-0.07;100.00;100380.19;5026844;28;20199;-73
2022/02/01 08:32:28;;;;;;;27.33;9.63;;;;;;;-0.01;100.00;100381.16;5025078;28;20195;-73
2022/02/01 08:34:55;;;;;;;14.93;8.93;;;;;;;0.05;100.00;100385.47;5029526;28;20194;-72
2022/02/01 08:37:22;;;;;;;29.57;12.13;;;;;;;0.10;100.00;100388.13;5026623;28;20202;-73
2022/02/01 08:39:49;;;;;;;26.67;10.20;;;;;;;0.14;100.00;100389.88;5028492;28;20223;-73
2022/02/01 08:42:15;;;;;;;16.53;8.63;;;;;;;0.17;100.00;100389.91;5028545;28;20677;-73
2022/02/01 08:44:44;;;;;;;24.57;9.73;;;;;;;0.21;100.00;100395.94;5031945;28;20199;-73
2022/02/01 08:47:12;;;;;;;17.03;8.37;;;;;;;0.25;100.00;100390.03;5024668;28;20203;-73
2022/02/01 08:49:40;;;;;;;19.57;8.60;;;;;;;0.28;100.00;100378.09;5022044;28;20246;-74
2022/02/01 08:52:10;;;;;;;21.33;8.80;;;;;;;0.33;100.00;100385.84;5025856;28;20231;-73
2022/02/01 08:54:38;;;;;;;26.50;9.33;;;;;;;0.42;100.00;100380.81;5026551;28;20250;-73
2022/02/01 08:57:25;;;;;;;23.87;9.73;;;;;;;0.47;100.00;100381.72;5028064;28;20222;-73
2022/02/01 08:59:52;;;;;;;17.73;9.00;;;;;;;0.50;100.00;100374.06;5027271;28;20914;-73
2022/02/01 09:02:23;;;;;;;21.53;8.60;;;;;;;0.55;100.00;100377.53;5027552;28;20199;-73
2022/02/01 09:04:50;;;;;;;21.97;9.47;;;;;;;0.58;100.00;100376.69;5026524;28;20665;-73
2022/02/01 09:07:16;;;;;;;17.47;7.83;;;;;;;0.64;100.00;100379.34;5029176;28;20206;-74
2022/02/01 09:09:43;;;;;;;16.20;7.80;;;;;;;0.70;100.00;100363.13;5026239;28;20220;-73
2022/02/01 09:12:10;;;;;;;16.00;7.77;;;;;;;0.74;100.00;100365.75;5026499;28;20230;-74
2022/02/01 09:14:37;;;;;;;18.33;7.53;;;;;;;0.76;100.00;100370.91;5025799;28;20208;-73
2022/02/01 09:17:05;;;;;;;17.93;7.10;;;;;;;0.74;100.00;100364.91;5029378;28;20560;-74
2022/02/01 09:19:34;;;;;;;17.37;7.50;;;;;;;0.71;100.00;100370.84;5027090;28;20585;-73
2022/02/01 09:22:01;;;;;;;14.47;7.30;;;;;;;0.78;100.00;100369.22;5027994;28;20196;-73
2022/02/01 09:24:29;;;;;;;14.97;7.20;;;;;;;0.84;100.00;100355.56;5022617;28;20239;-73
2022/02/01 09:26:56;;;;;;;18.37;7.27;;;;;;;0.91;100.00;100352.22;5025429;28;20253;-73
2022/02/01 09:29:23;;;;;;;22.37;7.57;;;;;;;0.92;100.00;100348.81;5025448;28;20741;-74
2022/02/01 09:31:51;;;;;;;21.47;7.67;;;;;;;0.91;100.00;100349.66;5024889;28;20212;-73
2022/02/01 09:34:18;;;;;;;22.43;7.77;;;;;;;0.92;100.00;100344.53;5025500;28;20200;-73
2022/02/01 09:36:46;;;;;;;18.97;7.13;;;;;;;0.94;100.00;100335.13;5026621;28;20208;-73
2022/02/01 09:39:13;;;;;;;10.90;6.40;;;;;;;0.94;100.00;100324.00;5022708;28;20503;-74
2022/02/01 09:41:40;;;;;;;13.50;6.73;;;;;;;0.96;100.00;100334.31;5027002;28;20214;-74
2022/02/01 09:44:08;;;;;;;14.87;6.60;;;;;;;1.01;100.00;100335.19;5026969;28;20695;-73
2022/02/01 09:46:35;;;;;;;21.33;6.77;;;;;;;1.07;100.00;100312.13;5030517;28;20228;-73
2022/02/01 09:49:02;;;;;;;17.23;6.83;;;;;;;1.14;100.00;100313.88;5022642;28;20358;-73
2022/02/01 09:51:28;;;;;;;14.40;6.67;;;;;;;1.18;100.00;100314.75;5025739;28;20222;-73
2022/02/01 09:53:56;;;;;;;14.97;6.13;;;;;;;1.24;100.00;100309.69;5023311;28;20210;-73
2022/02/01 09:56:23;;;;;;;18.30;7.47;;;;;;;1.29;100.00;100305.44;5032291;28;20560;-73
2022/02/01 09:58:54;;;;;;;18.60;6.13;;;;;;;1.33;100.00;100309.75;5023303;28;20231;-73
2022/02/01 10:01:23;;;;;;;17.50;6.37;;;;;;;1.31;100.00;100309.72;5021848;28;20204;-73
2022/02/01 10:04:01;;;;;;;12.90;5.90;;;;;;;1.33;100.00;100305.47;5026124;28;20565;-73
2022/02/01 10:06:32;;;;;;;15.00;5.43;;;;;;;1.41;100.00;100308.09;5020728;28;20196;-73
2022/02/01 10:09:08;;;;;;;13.17;5.27;;;;;;;1.39;100.00;100285.78;5020270;28;20224;-73
2022/02/01 10:11:36;;;;;;;13.27;5.43;;;;;;;1.42;100.00;100289.25;5024651;28;20222;-73
2022/02/01 10:14:04;;;;;;;16.03;5.73;;;;;;;1.47;100.00;100285.00;5023303;28;20218;-72
2022/02/01 10:16:33;;;;;;;11.23;4.70;;;;;;;1.50;100.00;100276.47;5025600;28;20538;-73
2022/02/01 10:19:07;;;;;;;15.70;5.20;;;;;;;1.57;100.00;100270.50;5022290;28;20762;-74
2022/02/01 10:21:34;;;;;;;14.33;5.37;;;;;;;1.64;100.00;100271.38;5021985;28;20211;-72
2022/02/01 10:24:05;;;;;;;15.37;4.93;;;;;;;1.60;100.00;100262.81;5026057;28;20293;-73
2022/02/01 10:26:34;;;;;;;11.63;4.80;;;;;;;1.62;100.00;100263.66;5032408;28;20783;-73
2022/02/01 10:29:04;;;;;;;9.70;4.80;;;;;;;1.66;100.00;100247.41;5023403;28;20299;-73
2022/02/01 10:31:37;;;;;;;15.13;5.07;;;;;;;1.68;100.00;100244.84;5024821;28;20307;-74
2022/02/01 10:34:28;;;;;;;13.77;5.30;;;;;;;1.76;100.00;100239.72;5027483;28;20246;-73
2022/02/01 10:36:56;;;;;;;18.10;4.67;;;;;;;1.79;100.00;100242.31;5027484;28;20196;-73
2022/02/01 10:39:25;;;;;;;20.90;5.30;;;;;;;1.72;100.00;100243.13;5022863;28;20212;-74
2022/02/01 10:41:58;;;;;;;10.97;4.53;;;;;;;1.77;100.00;100234.59;5025786;28;20203;-74
2022/02/01 10:44:37;;;;;;;10.40;4.83;;;;;;;1.81;100.00;100227.75;5028548;28;20212;-73
2022/02/01 10:47:05;;;;;;;12.17;5.13;;;;;;;1.82;100.00;100220.03;5038807;28;20269;-73
2022/02/01 10:49:33;;;;;;;19.17;4.90;;;;;;;1.78;100.00;100213.19;5027909;28;20220;-74
2022/02/01 10:52:05;;;;;;;13.00;4.60;;;;;;;1.76;100.00;100216.59;5026103;28;20717;-73
2022/02/01 10:54:33;;;;;;;9.63;4.70;;;;;;;1.67;100.00;100215.72;5030369;28;20194;-73
2022/02/01 10:57:02;;;;;;;10.87;4.67;;;;;;;1.66;100.00;100206.28;5023670;28;20257;-74
2022/02/01 10:59:29;;;;;;;16.30;4.80;;;;;;;1.70;100.00;100209.72;5028993;28;20235;-74
2022/02/01 11:01:57;;;;;;;17.73;4.77;;;;;;;1.63;100.00;100195.13;5028385;28;20676;-73
2022/02/01 11:04:25;;;;;;;14.87;4.40;;;;;;;1.65;100.00;100190.84;5033980;28;20220;-73
2022/02/01 11:06:53;;;;;;;11.90;4.00;;;;;;;1.67;100.00;100189.13;5026019;28;20200;-74
2022/02/01 11:09:21;;;;;;;9.60;3.80;;;;;;;1.67;100.00;100189.13;5029582;28;20282;-73
2022/02/01 11:11:52;;;;;;;11.27;3.83;;;;;;;1.68;100.00;100188.28;5027729;28;20212;-74
2022/02/01 11:14:21;;;;;;;10.93;4.27;;;;;;;1.73;100.00;100180.59;5026958;28;20239;-74
2022/02/01 11:16:47;;;;;;;11.87;4.00;;;;;;;1.70;100.00;100171.16;5026927;28;20623;-74
2022/02/01 11:19:14;;;;;;;9.97;3.83;;;;;;;1.74;100.00;100170.31;5034724;28;20215;-73
2022/02/01 11:21:46;;;;;;;8.10;3.40;;;;;;;1.75;100.00;100166.91;5025612;28;20279;-73
2022/02/01 11:24:30;;;;;;;14.97;4.13;;;;;;;1.80;100.00;100161.78;5027818;28;20208;-74
2022/02/01 11:27:03;;;;;;;12.57;3.67;;;;;;;1.87;100.00;100163.50;5027839;28;20552;-74
2022/02/01 11:29:40;;;;;;;12.20;3.53;;;;;;;1.85;100.00;100162.66;5032309;28;20700;-73
2022/02/01 11:32:16;;;;;;;12.60;3.90;;;;;;;1.87;100.00;100159.22;5027084;28;20224;-73
2022/02/01 11:34:43;;;;;;;8.90;3.13;;;;;;;1.94;100.00;100161.81;5023224;28;20670;-72
2022/02/01 11:37:13;;;;;;;12.57;3.97;;;;;;;1.94;100.00;100149.81;5023336;28;20218;-73
2022/02/01 11:39:48;;;;;;;8.87;3.27;;;;;;;2.02;100.00;100145.53;5027012;28;20277;-73
2022/02/01 11:42:16;;;;;;;14.90;3.70;;;;;;;2.02;100.00;100136.94;5031395;28;20680;-73
2022/02/01 11:44:44;;;;;;;11.63;3.20;;;;;;;2.06;100.00;100120.69;5030664;28;20207;-73
2022/02/01 11:47:12;;;;;;;9.50;3.20;;;;;;;2.12;100.00;100112.09;5025174;28;20200;-73
2022/02/01 11:49:51;;;;;;;8.87;2.83;;;;;;;2.12;100.00;100117.25;5026005;28;20223;-73
2022/02/01 11:52:18;;;;;;;7.53;2.90;;;;;;;2.19;100.00;100116.38;5027494;28;20208;-73
2022/02/01 11:54:47;;;;;;;7.90;2.47;;;;;;;2.27;100.00;100109.53;5024844;28;20594;-73
2022/02/01 11:57:17;;;;;;;11.50;2.80;;;;;;;2.34;100.00;100113.81;5043186;28;20200;-73
2022/02/01 11:59:56;;;;;;;10.57;2.40;;;;;;;2.47;100.00;100100.06;5028274;28;20323;-73
2022/02/01 12:02:35;;;;;;;8.33;2.70;;;;;;;2.49;100.00;100086.34;5026980;28;20207;-73
2022/02/01 12:05:09;;;;;;;8.70;2.20;;;;;;;2.54;100.00;100082.91;5029060;28;20227;-74
2022/02/01 12:08:03;;;;;;;8.37;2.43;;;;;;;2.49;100.00;100068.34;5027207;28;20284;-74
2022/02/01 12:10:31;;;;;;;6.87;2.00;;;;;;;2.37;100.00;100066.63;5026326;28;20199;-74
2022/02/01 12:13:01;;;;;;;8.87;1.97;;;;;;;2.38;100.00;100053.75;5028007;28;20232;-74
2022/02/01 12:15:33;;;;;;;9.47;2.17;;;;;;;2.34;100.00;100035.75;5020775;28;20278;-74
2022/02/01 12:18:07;;;;;;;11.17;2.20;;;;;;;2.41;100.00;100035.75;5024759;28;20216;-74